Terminal Aerodrome Forecast
Issued by NWS

Home | Current Version | Previous Version | Text Only | Print | Product List | Glossary On
Versions: 1 2 3 4 5 6 7 8 9 10 11 12 13 14 15 16 17
000
FTUS43 KAPX 300700 AAA
TAFMBL
TAF AMD
KMBL 300754Z 3008/3106 16006KT P6SM VCTS SCT060CB BKN140
      WS020/20040KT
     FM301000 17006KT 5SM -SHRA BR BKN008 OVC050 WS020/21030KT
     FM301400 21008G16KT 6SM BR VCSH BKN012
     FM301600 22009G17KT P6SM VCSH BKN025
     FM302000 22009KT 5SM -TSRA BR OVC030CB
     FM302300 29006KT 6SM BR OVC008
      AMD LTD TO CLD VIS AND WIND=

USA.gov is the U.S. government's official web portal to all federal, state and local government web resources and services.